Time;durP1;ratioP1;P1;durP2;ratioP2;P2;SDS_P1;SDS_P2;PMS_P1;PMS_P2;Temp;Humidity;BMP_temperature;BMP_pressure;BME280_temperature;BME280_humidity;BME280_pressure;Samples;Min_cycle;Max_cycle;Signal;HPM_P1;HPM_P2
2024/02/13 00:01:54;;;;;;;7.47;2.70;;;6.70;78.40;;;;;;5024772;28;20471;-71
2024/02/13 00:04:20;;;;;;;9.10;2.23;;;6.70;78.40;;;;;;5026959;28;20580;-72
2024/02/13 00:06:46;;;;;;;6.03;2.27;;;6.70;78.40;;;;;;5032101;28;20197;-71
2024/02/13 00:09:15;;;;;;;11.33;2.67;;;6.70;78.60;;;;;;5030828;28;20677;-72
2024/02/13 00:11:41;;;;;;;6.60;2.70;;;6.60;78.60;;;;;;5026315;28;20463;-72
2024/02/13 00:14:10;;;;;;;5.00;2.23;;;6.70;78.40;;;;;;5022656;28;20493;-71
2024/02/13 00:16:38;;;;;;;5.50;2.97;;;6.60;78.40;;;;;;5030060;28;20302;-72
2024/02/13 00:19:04;;;;;;;8.20;2.30;;;6.60;78.60;;;;;;5028259;28;20457;-71
2024/02/13 00:21:31;;;;;;;4.47;2.30;;;6.50;78.60;;;;;;5026240;28;20825;-72
2024/02/13 00:23:57;;;;;;;3.67;2.10;;;6.50;78.70;;;;;;5023349;28;20412;-73
2024/02/13 00:26:23;;;;;;;4.30;2.53;;;6.50;78.70;;;;;;5032241;28;20427;-71
2024/02/13 00:28:49;;;;;;;7.63;2.77;;;6.50;78.70;;;;;;5022427;28;20443;-72
2024/02/13 00:31:14;;;;;;;8.07;2.57;;;6.50;78.90;;;;;;5030496;28;20455;-73
2024/02/13 00:33:40;;;;;;;6.60;2.13;;;6.50;78.90;;;;;;5024641;28;20193;-71
2024/02/13 00:36:09;;;;;;;8.03;3.13;;;6.50;78.90;;;;;;5030489;28;20193;-71
2024/02/13 00:38:35;;;;;;;6.53;2.60;;;6.50;78.90;;;;;;5030040;28;20657;-71
2024/02/13 00:41:04;;;;;;;7.80;2.83;;;6.60;78.70;;;;;;5026734;28;20464;-70
2024/02/13 00:43:30;;;;;;;6.27;3.00;;;6.50;78.90;;;;;;5029806;28;20606;-70
2024/02/13 00:45:57;;;;;;;5.50;2.90;;;6.50;79.00;;;;;;5029827;28;20495;-71
2024/02/13 00:48:23;;;;;;;5.70;2.77;;;6.50;79.20;;;;;;5029860;28;20439;-73
2024/02/13 00:50:49;;;;;;;7.33;2.50;;;6.50;79.20;;;;;;5026242;28;20480;-73
2024/02/13 00:53:15;;;;;;;6.97;2.70;;;6.50;79.00;;;;;;5026109;28;20428;-72
2024/02/13 00:55:42;;;;;;;9.40;2.97;;;6.50;79.20;;;;;;5024684;28;20408;-72
2024/02/13 00:58:09;;;;;;;11.30;2.70;;;6.50;79.30;;;;;;5030503;28;20825;-71
2024/02/13 01:00:35;;;;;;;5.97;2.53;;;6.50;79.30;;;;;;5029593;28;20464;-72
2024/02/13 01:03:04;;;;;;;7.93;3.07;;;6.50;79.20;;;;;;5027880;28;20438;-71
2024/02/13 01:05:30;;;;;;;9.03;2.30;;;6.50;79.20;;;;;;5024794;28;20192;-72
2024/02/13 01:07:57;;;;;;;6.10;2.30;;;6.60;79.00;;;;;;5024038;28;20941;-72
2024/02/13 01:10:23;;;;;;;5.00;2.13;;;6.60;78.90;;;;;;5025226;28;20789;-73
2024/02/13 01:12:50;;;;;;;10.10;3.10;;;6.60;79.00;;;;;;5024093;28;20475;-72
2024/02/13 01:15:16;;;;;;;9.73;2.53;;;6.60;78.90;;;;;;5025239;28;21058;-72
2024/02/13 01:17:42;;;;;;;14.43;3.53;;;6.60;79.00;;;;;;5028202;28;20420;-70
2024/02/13 01:20:11;;;;;;;6.80;2.60;;;6.60;79.00;;;;;;5027194;28;20463;-71
2024/02/13 01:22:37;;;;;;;5.60;2.57;;;6.60;79.20;;;;;;5024350;28;20898;-73
2024/02/13 01:25:05;;;;;;;4.33;2.20;;;6.70;79.20;;;;;;5026982;28;20876;-71
2024/02/13 01:27:31;;;;;;;5.23;2.30;;;6.70;79.20;;;;;;5027594;28;20428;-71
2024/02/13 01:29:57;;;;;;;5.33;2.40;;;6.70;79.20;;;;;;5027687;28;20424;-71
2024/02/13 01:32:24;;;;;;;8.53;2.57;;;6.70;79.20;;;;;;5020134;28;20529;-70
2024/02/13 01:34:50;;;;;;;3.70;2.57;;;6.70;79.30;;;;;;5025035;28;20940;-72
2024/02/13 01:37:16;;;;;;;3.17;2.27;;;6.70;79.20;;;;;;5024761;28;20432;-75
2024/02/13 01:39:41;;;;;;;5.70;2.40;;;6.80;79.20;;;;;;5029297;28;20548;-72
2024/02/13 01:42:09;;;;;;;6.53;2.43;;;6.80;79.00;;;;;;5029703;28;20209;-72
2024/02/13 01:44:35;;;;;;;4.70;2.47;;;6.80;78.90;;;;;;5019332;28;20220;-73
2024/02/13 01:47:02;;;;;;;5.33;3.03;;;6.90;78.60;;;;;;5028102;28;20515;-71
2024/02/13 01:49:28;;;;;;;7.73;3.20;;;6.90;78.60;;;;;;5026415;28;20542;-72
2024/02/13 01:51:55;;;;;;;9.90;3.63;;;6.90;78.10;;;;;;5021976;28;20467;-71
2024/02/13 01:54:23;;;;;;;9.83;4.00;;;6.90;78.40;;;;;;5025984;28;20473;-72
2024/02/13 01:56:50;;;;;;;5.73;2.40;;;6.90;78.60;;;;;;5023401;28;20413;-73
2024/02/13 01:59:17;;;;;;;6.03;2.50;;;6.90;78.60;;;;;;5031724;28;20479;-73
2024/02/13 02:01:43;;;;;;;9.83;2.67;;;6.90;78.60;;;;;;5027118;28;20456;-72
2024/02/13 02:04:09;;;;;;;6.73;2.37;;;6.90;78.70;;;;;;5025018;28;21103;-72
2024/02/13 02:06:36;;;;;;;12.50;3.53;;;6.90;78.60;;;;;;5033176;28;20424;-73
2024/02/13 02:09:03;;;;;;;7.70;3.27;;;6.90;78.70;;;;;;5032350;28;20478;-70
2024/02/13 02:11:30;;;;;;;8.73;2.70;;;6.90;78.70;;;;;;5026022;28;20570;-72
2024/02/13 02:13:56;;;;;;;6.10;2.40;;;7.00;78.70;;;;;;5031630;28;20428;-69
2024/02/13 02:16:22;;;;;;;7.63;2.40;;;6.90;78.10;;;;;;5032361;28;20978;-69
2024/02/13 02:18:47;;;;;;;3.30;2.30;;;6.90;78.60;;;;;;5031764;28;20459;-70
2024/02/13 02:21:14;;;;;;;4.60;2.43;;;6.80;78.70;;;;;;5028413;28;20220;-70
2024/02/13 02:23:40;;;;;;;5.27;2.53;;;6.80;79.00;;;;;;5028844;28;20178;-70
2024/02/13 02:26:06;;;;;;;10.30;2.80;;;6.70;79.00;;;;;;5032255;28;20920;-71
2024/02/13 02:28:33;;;;;;;4.03;2.20;;;6.70;79.30;;;;;;5032482;28;20917;-71
2024/02/13 02:30:58;;;;;;;11.50;2.80;;;6.70;79.20;;;;;;5028934;28;20493;-72
2024/02/13 02:33:24;;;;;;;9.43;2.40;;;6.70;79.00;;;;;;5024831;28;20440;-72
2024/02/13 02:35:49;;;;;;;7.50;2.53;;;6.70;79.20;;;;;;5029160;28;20231;-72
2024/02/13 02:38:15;;;;;;;5.10;2.37;;;6.70;79.30;;;;;;5031867;28;20181;-72
2024/02/13 02:40:41;;;;;;;5.43;2.60;;;6.60;79.30;;;;;;5024378;28;20208;-71
2024/02/13 02:43:06;;;;;;;5.63;2.57;;;6.50;79.30;;;;;;5027149;28;20189;-71
2024/02/13 02:45:33;;;;;;;9.57;3.57;;;6.40;79.90;;;;;;5028742;28;20428;-72
2024/02/13 02:47:59;;;;;;;8.00;3.20;;;6.30;80.50;;;;;;5032367;28;20200;-72
2024/02/13 02:50:25;;;;;;;10.47;3.20;;;6.30;80.60;;;;;;5029007;28;20468;-72
2024/02/13 02:52:51;;;;;;;13.30;2.77;;;6.30;80.90;;;;;;5023694;28;20182;-71
2024/02/13 02:55:21;;;;;;;6.33;2.70;;;6.40;80.80;;;;;;5029470;28;20519;-72
2024/02/13 02:57:48;;;;;;;6.67;3.30;;;6.30;80.60;;;;;;5028656;28;20435;-73
2024/02/13 03:00:15;;;;;;;7.63;3.13;;;6.10;80.80;;;;;;5027739;28;20467;-70
2024/02/13 03:02:41;;;;;;;5.00;2.70;;;6.10;81.20;;;;;;5027141;28;20424;-72
2024/02/13 03:05:09;;;;;;;4.57;2.57;;;6.10;81.20;;;;;;5032505;28;20490;-71
2024/02/13 03:07:35;;;;;;;8.90;2.40;;;6.00;81.40;;;;;;5031736;28;20427;-71
2024/02/13 03:10:01;;;;;;;8.67;3.00;;;6.00;81.50;;;;;;5030860;28;20599;-71
2024/02/13 03:12:27;;;;;;;8.97;3.80;;;5.90;81.70;;;;;;5023403;28;20439;-72
2024/02/13 03:14:52;;;;;;;13.33;2.97;;;5.80;81.90;;;;;;5031300;28;20443;-71
2024/02/13 03:17:20;;;;;;;7.00;3.20;;;5.70;82.40;;;;;;5029093;28;20236;-72
2024/02/13 03:19:46;;;;;;;4.20;2.90;;;5.80;82.50;;;;;;5027595;28;20456;-72
2024/02/13 03:22:12;;;;;;;6.30;2.50;;;5.80;82.20;;;;;;5025391;28;20494;-74
2024/02/13 03:24:37;;;;;;;6.10;2.53;;;5.80;82.20;;;;;;5032947;28;20193;-71
2024/02/13 03:27:03;;;;;;;9.60;3.10;;;5.90;82.20;;;;;;5033529;28;20227;-71
2024/02/13 03:29:29;;;;;;;3.97;2.70;;;5.80;82.20;;;;;;5030715;28;20204;-71
2024/02/13 03:31:54;;;;;;;7.83;3.60;;;5.80;82.40;;;;;;5024713;28;20291;-71
2024/02/13 03:34:21;;;;;;;9.50;2.90;;;5.90;82.20;;;;;;5030607;28;20181;-70
2024/02/13 03:36:47;;;;;;;6.80;2.53;;;5.90;81.90;;;;;;5030133;28;20181;-70
2024/02/13 03:39:13;;;;;;;7.87;2.77;;;5.80;82.10;;;;;;5035233;28;20616;-70
2024/02/13 03:41:46;;;;;;;8.27;3.47;;;5.90;82.20;;;;;;5034641;28;20458;-71
2024/02/13 03:44:12;;;;;;;7.63;2.67;;;5.90;81.90;;;;;;5018241;28;20413;-70
2024/02/13 03:46:39;;;;;;;8.00;3.07;;;5.90;81.90;;;;;;5033177;28;20428;-71
2024/02/13 03:49:05;;;;;;;7.50;2.90;;;5.90;81.90;;;;;;5032422;28;20929;-69
2024/02/13 03:51:31;;;;;;;4.70;2.30;;;5.80;82.20;;;;;;5028984;28;20460;-70
2024/02/13 03:53:57;;;;;;;7.23;2.70;;;5.80;82.20;;;;;;5031329;28;20432;-70
2024/02/13 03:56:22;;;;;;;5.93;2.87;;;5.80;82.50;;;;;;5032101;28;20194;-70
2024/02/13 03:58:48;;;;;;;6.40;2.60;;;5.80;82.50;;;;;;5030744;28;20216;-70
2024/02/13 04:01:13;;;;;;;5.73;2.80;;;5.80;82.70;;;;;;5028391;28;20205;-69
2024/02/13 04:03:39;;;;;;;8.30;2.50;;;5.90;82.80;;;;;;5021940;28;20185;-71
2024/02/13 04:06:08;;;;;;;4.40;2.17;;;6.00;82.70;;;;;;5030996;28;20192;-71
2024/02/13 04:08:34;;;;;;;6.63;2.60;;;6.00;82.40;;;;;;5031321;28;20300;-71
2024/02/13 04:11:03;;;;;;;4.87;2.40;;;6.10;81.90;;;;;;5029167;28;20550;-70
2024/02/13 04:13:29;;;;;;;6.23;2.73;;;6.20;81.40;;;;;;5022765;28;20615;-71
2024/02/13 04:15:54;;;;;;;7.07;2.07;;;6.20;81.50;;;;;;5031472;28;20426;-72
2024/02/13 04:18:20;;;;;;;6.30;2.50;;;6.10;81.70;;;;;;5030429;28;20251;-72
2024/02/13 04:20:45;;;;;;;4.20;1.90;;;6.20;81.70;;;;;;5026834;28;20618;-71
2024/02/13 04:23:11;;;;;;;9.03;2.67;;;6.30;81.70;;;;;;5023915;28;20276;-72
2024/02/13 04:25:37;;;;;;;8.00;2.87;;;6.30;81.50;;;;;;5030510;28;20268;-71
2024/02/13 04:28:03;;;;;;;3.83;2.30;;;6.30;81.70;;;;;;5030142;28;20678;-72
2024/02/13 04:30:28;;;;;;;11.07;2.73;;;6.20;81.80;;;;;;5026335;28;20460;-72
2024/02/13 04:32:54;;;;;;;3.90;2.13;;;6.30;82.10;;;;;;5024985;28;20208;-71
2024/02/13 04:35:19;;;;;;;6.93;2.13;;;6.30;81.70;;;;;;5029500;28;20223;-71
2024/02/13 04:37:45;;;;;;;9.63;3.00;;;6.40;81.70;;;;;;5031491;28;20260;-72
2024/02/13 04:40:11;;;;;;;7.03;2.43;;;6.40;81.40;;;;;;5031467;28;20771;-73
2024/02/13 04:42:37;;;;;;;6.40;2.30;;;6.30;81.20;;;;;;5035031;28;20201;-72
2024/02/13 04:45:03;;;;;;;4.47;2.50;;;6.30;81.20;;;;;;5029768;28;20424;-70
2024/02/13 04:47:30;;;;;;;8.30;2.40;;;6.20;81.20;;;;;;5034751;28;20193;-71
2024/02/13 04:50:01;;;;;;;5.27;1.87;;;6.10;81.70;;;;;;5033092;28;20494;-71
2024/02/13 04:52:27;;;;;;;7.40;2.60;;;6.10;81.80;;;;;;5025755;28;20447;-72
2024/02/13 04:54:53;;;;;;;4.13;2.30;;;6.20;81.90;;;;;;5024472;28;20478;-72
2024/02/13 04:57:19;;;;;;;9.43;3.20;;;6.10;81.80;;;;;;5030237;28;20470;-71
2024/02/13 04:59:48;;;;;;;6.63;2.30;;;6.10;81.90;;;;;;5029288;28;20459;-71
2024/02/13 05:02:18;;;;;;;8.03;2.63;;;6.00;82.40;;;;;;5025857;28;20463;-70
2024/02/13 05:07:31;;;;;;;5.70;2.40;;;5.90;82.40;;;;;;5024402;28;21302;-72
2024/02/13 05:09:58;;;;;;;3.53;2.43;;;5.90;82.70;;;;;;5028837;28;20416;-71
2024/02/13 05:12:26;;;;;;;7.97;2.80;;;5.90;82.70;;;;;;5020112;28;20440;-71
2024/02/13 05:14:57;;;;;;;6.00;2.37;;;5.90;82.70;;;;;;5023907;28;20416;-71
2024/02/13 05:17:30;;;;;;;5.57;2.17;;;5.90;82.70;;;;;;5029533;28;20436;-72
2024/02/13 05:19:55;;;;;;;5.50;2.40;;;6.00;82.70;;;;;;5027924;28;20559;-70
2024/02/13 05:22:21;;;;;;;8.33;2.30;;;6.10;82.70;;;;;;5021252;28;20602;-71
2024/02/13 05:24:48;;;;;;;11.13;2.50;;;6.30;82.40;;;;;;5025572;28;20192;-71
2024/02/13 05:27:13;;;;;;;4.53;2.57;;;6.30;81.80;;;;;;5033004;28;20272;-72
2024/02/13 05:29:43;;;;;;;10.77;2.70;;;6.40;81.50;;;;;;5029138;28;20518;-71
2024/02/13 05:32:09;;;;;;;7.33;2.40;;;6.40;81.20;;;;;;5022800;28;20227;-71
2024/02/13 05:34:35;;;;;;;6.00;2.33;;;6.40;81.20;;;;;;5026547;28;20423;-73
2024/02/13 05:37:01;;;;;;;3.73;2.23;;;6.20;81.20;;;;;;5027418;28;20177;-72
2024/02/13 05:39:28;;;;;;;7.90;2.30;;;6.20;81.80;;;;;;5028988;28;20552;-71
2024/02/13 05:41:54;;;;;;;6.10;2.70;;;6.20;81.80;;;;;;5025491;28;20466;-72
2024/02/13 05:44:24;;;;;;;6.50;3.77;;;6.10;82.10;;;;;;5026429;28;20461;-71
2024/02/13 05:46:50;;;;;;;6.43;2.53;;;6.10;82.10;;;;;;5029265;28;20786;-73
2024/02/13 05:49:15;;;;;;;6.63;2.80;;;6.00;82.20;;;;;;5029099;28;20419;-71
2024/02/13 05:51:42;;;;;;;4.33;2.27;;;6.00;82.70;;;;;;5023976;28;20459;-71
2024/02/13 05:54:09;;;;;;;7.30;2.90;;;6.10;82.80;;;;;;5027974;28;20177;-71
2024/02/13 05:56:35;;;;;;;6.30;3.33;;;6.20;82.80;;;;;;5029517;28;20452;-71
2024/02/13 05:59:03;;;;;;;7.10;2.60;;;6.20;82.50;;;;;;5023280;28;20524;-72
2024/02/13 06:01:29;;;;;;;7.67;3.40;;;6.30;82.10;;;;;;5024317;28;20323;-71
2024/02/13 06:03:57;;;;;;;7.87;2.57;;;6.30;81.50;;;;;;5023712;28;20420;-72
2024/02/13 06:06:24;;;;;;;7.13;3.20;;;6.40;81.50;;;;;;5033701;28;20795;-72
2024/02/13 06:08:52;;;;;;;5.83;3.00;;;6.40;81.40;;;;;;5032598;28;20510;-71
2024/02/13 06:11:18;;;;;;;6.20;2.53;;;6.40;81.20;;;;;;5025046;28;20456;-71
2024/02/13 06:13:45;;;;;;;7.43;3.17;;;6.30;81.40;;;;;;5016819;28;20427;-72
2024/02/13 06:16:12;;;;;;;4.40;2.30;;;6.30;81.40;;;;;;5028590;28;20425;-72
2024/02/13 06:18:37;;;;;;;5.73;2.80;;;6.30;81.70;;;;;;5027150;28;20463;-72
2024/02/13 06:21:04;;;;;;;5.00;2.53;;;6.30;81.40;;;;;;5026615;28;20455;-72
2024/02/13 06:23:30;;;;;;;10.10;2.90;;;6.20;81.40;;;;;;5021281;28;20189;-73
2024/02/13 06:25:55;;;;;;;8.73;2.60;;;6.30;81.50;;;;;;5029532;28;20416;-73
2024/02/13 06:28:21;;;;;;;5.50;2.67;;;6.40;81.70;;;;;;5028361;28;20423;-74
2024/02/13 06:30:47;;;;;;;8.30;2.80;;;6.40;81.70;;;;;;5030618;28;20232;-74
2024/02/13 06:33:13;;;;;;;6.63;3.30;;;6.50;81.50;;;;;;5025448;28;20197;-74
2024/02/13 06:35:42;;;;;;;5.73;3.00;;;6.50;81.10;;;;;;5032050;28;20954;-74
2024/02/13 06:38:08;;;;;;;5.23;3.07;;;6.50;81.10;;;;;;5031634;28;20462;-73
2024/02/13 06:40:34;;;;;;;7.93;3.30;;;6.50;81.20;;;;;;5024102;28;20499;-73
2024/02/13 06:43:00;;;;;;;8.97;2.80;;;6.50;81.10;;;;;;5021470;28;20437;-72
2024/02/13 06:45:27;;;;;;;9.40;3.20;;;6.60;80.90;;;;;;5032578;28;20440;-71
2024/02/13 06:47:52;;;;;;;7.47;3.30;;;6.60;80.50;;;;;;5028966;28;20420;-73
2024/02/13 06:50:18;;;;;;;7.87;3.00;;;6.60;80.30;;;;;;5025826;28;20467;-72
2024/02/13 06:52:44;;;;;;;8.23;2.90;;;6.60;80.60;;;;;;5027733;28;20177;-72
2024/02/13 06:55:10;;;;;;;5.73;3.00;;;6.60;80.60;;;;;;5032550;28;20549;-72
2024/02/13 06:57:36;;;;;;;9.50;3.10;;;6.70;80.30;;;;;;5032226;28;20189;-71
2024/02/13 07:00:14;;;;;;;6.00;3.00;;;6.70;80.20;;;;;;5031732;28;20467;-71
2024/02/13 07:02:40;;;;;;;6.70;3.37;;;6.80;79.50;;;;;;5029958;28;20420;-73
2024/02/13 07:05:08;;;;;;;7.97;3.37;;;6.80;79.20;;;;;;5032208;28;20489;-72
2024/02/13 07:07:34;;;;;;;5.63;3.47;;;6.80;79.20;;;;;;5029105;28;20876;-72
2024/02/13 07:10:00;;;;;;;8.63;3.03;;;6.70;79.60;;;;;;5031426;28;20909;-72
2024/02/13 07:12:26;;;;;;;7.67;3.20;;;6.80;79.70;;;;;;5028071;28;20431;-72
2024/02/13 07:14:51;;;;;;;10.10;3.73;;;6.80;79.60;;;;;;5030098;28;20428;-73
2024/02/13 07:17:17;;;;;;;4.60;3.07;;;6.80;79.60;;;;;;5032450;28;20185;-72
2024/02/13 07:19:44;;;;;;;9.07;3.47;;;6.80;79.70;;;;;;5031219;28;20649;-72
2024/02/13 07:22:10;;;;;;;9.13;3.40;;;6.80;79.90;;;;;;5027613;28;20284;-73
2024/02/13 07:24:39;;;;;;;7.50;3.30;;;7.00;79.90;;;;;;5030538;28;20496;-71
2024/02/13 07:27:07;;;;;;;9.57;3.83;;;7.10;79.30;;;;;;5033976;28;20194;-71
2024/02/13 07:29:33;;;;;;;7.80;3.63;;;7.10;79.00;;;;;;5030936;28;20485;-72
2024/02/13 07:32:00;;;;;;;7.87;3.40;;;7.00;78.90;;;;;;5029815;28;20486;-71
2024/02/13 07:34:27;;;;;;;15.50;3.53;;;7.00;79.20;;;;;;5026167;28;20439;-72
2024/02/13 07:36:53;;;;;;;6.87;3.00;;;7.00;79.30;;;;;;5023453;28;20420;-72
2024/02/13 07:39:18;;;;;;;18.23;3.60;;;7.10;79.20;;;;;;5032847;28;20475;-72
2024/02/13 07:41:44;;;;;;;8.70;3.23;;;7.10;79.00;;;;;;5031912;28;20874;-75
2024/02/13 07:44:10;;;;;;;5.17;3.03;;;7.10;79.00;;;;;;5028855;28;20679;-72
2024/02/13 07:46:36;;;;;;;7.70;3.40;;;7.10;79.20;;;;;;5031687;28;20416;-72
2024/02/13 07:49:04;;;;;;;9.90;4.00;;;7.00;79.30;;;;;;5031911;28;20193;-73
2024/02/13 07:51:31;;;;;;;8.53;4.20;;;7.10;79.60;;;;;;5026934;28;20776;-72
2024/02/13 07:53:57;;;;;;;5.17;3.03;;;7.10;79.30;;;;;;5023096;28;20543;-72
2024/02/13 07:56:28;;;;;;;10.20;3.23;;;7.20;79.00;;;;;;5030861;28;20198;-72
2024/02/13 07:58:57;;;;;;;8.70;3.70;;;7.30;78.70;;;;;;5031771;28;20553;-72
2024/02/13 08:01:27;;;;;;;9.40;4.37;;;7.30;78.30;;;;;;5024928;28;20467;-73
2024/02/13 08:03:52;;;;;;;9.60;3.87;;;7.30;78.10;;;;;;5030070;28;20439;-73
2024/02/13 08:06:18;;;;;;;8.37;3.07;;;7.10;78.10;;;;;;5030845;28;20432;-73
2024/02/13 08:08:46;;;;;;;9.40;3.37;;;7.00;78.90;;;;;;5030521;28;20178;-72
2024/02/13 08:11:13;;;;;;;6.60;3.30;;;7.00;79.30;;;;;;5027261;28;20506;-71
2024/02/13 08:13:39;;;;;;;3.70;2.43;;;7.00;79.50;;;;;;5029828;28;20428;-71
2024/02/13 08:16:06;;;;;;;7.93;3.27;;;7.00;79.60;;;;;;5027768;28;20539;-71
2024/02/13 08:18:34;;;;;;;5.83;2.97;;;7.00;79.30;;;;;;5030660;28;20965;-73
2024/02/13 08:21:03;;;;;;;5.70;2.63;;;7.00;79.30;;;;;;5029476;28;20472;-72
2024/02/13 08:23:29;;;;;;;7.80;3.03;;;7.00;79.20;;;;;;5028310;28;20448;-74
2024/02/13 08:25:55;;;;;;;6.73;2.80;;;7.00;78.90;;;;;;5036538;28;20420;-74
2024/02/13 08:28:20;;;;;;;11.83;3.20;;;7.00;78.90;;;;;;5031933;28;20428;-71
2024/02/13 08:30:48;;;;;;;6.10;2.50;;;7.10;78.70;;;;;;5027056;28;21042;-72
2024/02/13 08:33:19;;;;;;;6.20;2.50;;;7.10;78.70;;;;;;5027732;28;20205;-72
2024/02/13 08:35:46;;;;;;;4.40;2.50;;;7.10;78.60;;;;;;5027595;28;20436;-72
2024/02/13 08:38:12;;;;;;;5.13;2.50;;;7.20;78.40;;;;;;5030989;28;20515;-72
2024/02/13 08:40:38;;;;;;;9.37;3.27;;;7.20;78.30;;;;;;5027316;28;21774;-72
2024/02/13 08:43:04;;;;;;;4.87;3.00;;;7.30;78.00;;;;;;5022539;28;20186;-72
2024/02/13 08:45:30;;;;;;;12.10;3.33;;;7.30;77.80;;;;;;5028326;28;20424;-71
2024/02/13 08:47:55;;;;;;;5.93;2.87;;;7.40;77.60;;;;;;5030578;28;20507;-72
2024/02/13 08:50:21;;;;;;;4.13;2.50;;;7.50;77.30;;;;;;5026765;28;20213;-72
2024/02/13 08:52:48;;;;;;;6.00;2.10;;;7.50;77.00;;;;;;5018935;28;20231;-71
2024/02/13 08:55:14;;;;;;;5.70;2.47;;;7.50;77.10;;;;;;5028785;28;20450;-71
2024/02/13 08:57:40;;;;;;;6.53;2.30;;;7.60;76.40;;;;;;5029961;28;20451;-72
2024/02/13 09:00:09;;;;;;;7.53;2.27;;;7.70;76.20;;;;;;5028751;28;20490;-72
2024/02/13 09:02:36;;;;;;;12.10;2.70;;;7.90;75.10;;;;;;5025525;28;20185;-71
2024/02/13 09:05:02;;;;;;;9.43;2.30;;;7.90;74.80;;;;;;5026072;28;20424;-72
2024/02/13 09:07:28;;;;;;;4.77;1.60;;;7.90;74.00;;;;;;5030324;28;20435;-72
2024/02/13 09:09:55;;;;;;;4.07;1.93;;;8.00;73.20;;;;;;5030527;28;20284;-71
2024/02/13 09:12:21;;;;;;;5.30;2.20;;;8.10;73.20;;;;;;5017500;28;20467;-72
2024/02/13 09:14:46;;;;;;;2.67;1.53;;;8.20;73.20;;;;;;5029732;28;20408;-73
2024/02/13 09:17:12;;;;;;;4.57;2.20;;;8.20;73.00;;;;;;5026233;28;20599;-72
2024/02/13 09:19:41;;;;;;;5.23;1.97;;;8.30;72.70;;;;;;5027837;28;20217;-72
2024/02/13 09:22:07;;;;;;;5.13;2.07;;;8.60;71.70;;;;;;5022623;28;20214;-73
2024/02/13 09:24:33;;;;;;;4.93;1.90;;;8.70;71.10;;;;;;5027357;28;20439;-72
2024/02/13 09:26:59;;;;;;;5.93;2.10;;;8.70;70.70;;;;;;5029978;28;20570;-74
2024/02/13 09:29:24;;;;;;;4.37;1.50;;;8.70;70.50;;;;;;5025416;28;20224;-74
2024/02/13 09:31:50;;;;;;;9.20;2.00;;;8.60;70.40;;;;;;5026962;28;20558;-71
2024/02/13 09:34:16;;;;;;;4.00;2.00;;;8.70;70.70;;;;;;5029679;28;20189;-73
2024/02/13 09:36:43;;;;;;;8.30;2.37;;;8.70;70.10;;;;;;5030976;28;20938;-72
2024/02/13 09:39:11;;;;;;;5.80;2.40;;;8.70;70.20;;;;;;5032723;28;20468;-73
2024/02/13 09:41:40;;;;;;;6.00;2.33;;;8.80;70.10;;;;;;5026447;28;20467;-72
2024/02/13 09:44:09;;;;;;;5.40;2.10;;;8.70;69.40;;;;;;5027876;28;20443;-72
2024/02/13 09:46:38;;;;;;;3.77;2.00;;;8.80;69.70;;;;;;5024088;28;20443;-73
2024/02/13 09:49:04;;;;;;;5.80;2.23;;;9.00;69.50;;;;;;5030168;28;20432;-73
2024/02/13 09:51:33;;;;;;;5.50;2.03;;;9.10;69.20;;;;;;5025827;28;20829;-72
2024/02/13 09:54:03;;;;;;;4.33;2.23;;;9.10;67.90;;;;;;5026251;28;20431;-71
2024/02/13 09:56:31;;;;;;;3.40;2.20;;;9.10;67.70;;;;;;5029822;28;20420;-72
2024/02/13 09:58:57;;;;;;;4.40;2.30;;;9.20;67.60;;;;;;5028963;28;21008;-71
2024/02/13 10:01:23;;;;;;;7.27;2.27;;;9.30;67.70;;;;;;5025417;28;20503;-72
2024/02/13 10:03:49;;;;;;;8.30;2.30;;;9.50;67.30;;;;;;5014382;28;20182;-74
2024/02/13 10:06:15;;;;;;;4.53;2.20;;;9.30;67.50;;;;;;5029164;28;20432;-72
2024/02/13 10:08:40;;;;;;;4.73;1.90;;;9.50;67.60;;;;;;5029026;28;20674;-73
2024/02/13 10:11:15;;;;;;;5.60;2.40;;;9.60;66.90;;;;;;5027374;28;20262;-73
2024/02/13 10:13:41;;;;;;;4.60;1.97;;;9.60;67.20;;;;;;5024864;28;20204;-73
2024/02/13 10:16:31;;;;;;;2.87;2.00;;;9.70;66.90;;;;;;5030014;28;20428;-73
2024/02/13 10:19:00;;;;;;;6.10;2.67;;;9.70;66.60;;;;;;5029210;28;20295;-72
2024/02/13 10:21:27;;;;;;;5.93;1.93;;;9.60;66.40;;;;;;5025311;28;20939;-72
2024/02/13 10:24:06;;;;;;;4.57;2.47;;;9.60;66.40;;;;;;5024988;28;20417;-72
2024/02/13 10:26:33;;;;;;;3.23;1.80;;;9.50;67.00;;;;;;5027812;28;20423;-72
2024/02/13 10:28:58;;;;;;;3.57;2.03;;;9.60;67.00;;;;;;5032381;28;21252;-72
2024/02/13 10:31:26;;;;;;;5.50;2.27;;;9.50;65.60;;;;;;5027250;28;20459;-72
2024/02/13 10:33:51;;;;;;;5.90;2.17;;;9.50;65.40;;;;;;5028435;28;20185;-72
2024/02/13 10:36:17;;;;;;;4.23;1.87;;;9.60;65.40;;;;;;5037735;28;20812;-73
2024/02/13 10:38:48;;;;;;;4.53;1.90;;;9.60;65.60;;;;;;5033069;28;20463;-73
2024/02/13 10:41:23;;;;;;;3.83;1.83;;;9.80;65.80;;;;;;5024925;28;20202;-73
2024/02/13 10:43:52;;;;;;;6.20;2.00;;;10.00;65.40;;;;;;5029783;28;20470;-73
2024/02/13 10:46:25;;;;;;;5.43;1.80;;;10.00;65.30;;;;;;5032667;28;20473;-72
2024/02/13 10:49:12;;;;;;;7.37;1.80;;;10.10;65.10;;;;;;5032232;28;20423;-72
2024/02/13 10:51:40;;;;;;;5.53;1.97;;;9.90;64.70;;;;;;5029019;28;20474;-71
2024/02/13 10:54:07;;;;;;;8.13;2.10;;;9.80;64.40;;;;;;5031188;28;20423;-72
2024/02/13 10:56:35;;;;;;;3.33;1.97;;;9.70;64.70;;;;;;5033079;28;20423;-72
2024/02/13 10:59:02;;;;;;;4.13;1.80;;;9.70;64.70;;;;;;5032796;28;20467;-72
2024/02/13 11:01:29;;;;;;;4.03;1.90;;;9.70;64.80;;;;;;5028544;28;20526;-72
2024/02/13 11:03:57;;;;;;;4.00;1.63;;;9.60;64.80;;;;;;5027129;28;20428;-72
2024/02/13 11:06:24;;;;;;;5.07;2.10;;;9.60;65.00;;;;;;5032038;28;20428;-72
2024/02/13 11:08:50;;;;;;;4.23;2.07;;;9.70;64.80;;;;;;5031962;28;20424;-72
2024/02/13 11:11:21;;;;;;;3.50;1.50;;;9.90;64.80;;;;;;5025261;28;20466;-72
2024/02/13 11:13:49;;;;;;;3.43;1.83;;;10.10;64.40;;;;;;5026427;28;20425;-73
2024/02/13 11:16:15;;;;;;;2.30;1.70;;;10.20;64.70;;;;;;5027841;28;20417;-73
2024/02/13 11:18:47;;;;;;;3.23;1.83;;;10.10;63.80;;;;;;5030678;28;20475;-72
2024/02/13 11:21:21;;;;;;;2.70;1.50;;;10.00;64.40;;;;;;5028556;28;20460;-72
2024/02/13 11:23:58;;;;;;;4.40;1.67;;;10.00;63.90;;;;;;5016596;28;20451;-72
2024/02/13 11:26:37;;;;;;;4.90;1.70;;;9.90;64.10;;;;;;5032330;28;20453;-72
2024/02/13 11:29:22;;;;;;;7.10;2.03;;;9.90;64.10;;;;;;5026332;28;20936;-72
2024/02/13 11:31:58;;;;;;;3.60;1.40;;;10.00;64.10;;;;;;5023139;28;20476;-72
2024/02/13 11:34:40;;;;;;;3.90;1.60;;;9.90;64.10;;;;;;5023429;28;20948;-72
2024/02/13 11:37:20;;;;;;;5.17;1.80;;;9.90;64.10;;;;;;5026523;28;20493;-71
2024/02/13 11:39:50;;;;;;;2.27;1.60;;;9.90;64.50;;;;;;5026967;28;20541;-71
2024/02/13 11:42:22;;;;;;;3.30;1.67;;;9.90;64.40;;;;;;5017106;28;21013;-71
2024/02/13 11:44:48;;;;;;;4.10;2.10;;;10.10;64.40;;;;;;5027993;28;20411;-72
2024/02/13 11:47:19;;;;;;;3.20;2.20;;;10.00;64.20;;;;;;5031826;28;20796;-71
2024/02/13 11:49:49;;;;;;;3.00;1.50;;;10.10;64.20;;;;;;5031696;28;20408;-72
2024/02/13 11:52:15;;;;;;;5.50;1.80;;;10.20;64.20;;;;;;5019199;28;20980;-72
2024/02/13 11:54:43;;;;;;;2.60;1.97;;;10.40;64.10;;;;;;5027963;28;20418;-72
2024/02/13 11:57:11;;;;;;;2.10;1.20;;;10.40;62.20;;;;;;5029299;28;20700;-73
2024/02/13 11:59:37;;;;;;;4.00;1.47;;;10.30;61.20;;;;;;5029145;28;20518;-73
2024/02/13 12:02:13;;;;;;;3.53;1.33;;;10.30;61.50;;;;;;5020405;28;20622;-73
2024/02/13 12:04:43;;;;;;;1.90;1.07;;;10.40;61.90;;;;;;5025451;28;20412;-71
2024/02/13 12:07:10;;;;;;;3.13;1.23;;;10.70;61.00;;;;;;5026428;28;20412;-73
2024/02/13 12:09:37;;;;;;;5.93;1.30;;;10.80;60.60;;;;;;5031225;28;20937;-72
2024/02/13 12:12:06;;;;;;;2.03;1.43;;;10.80;60.10;;;;;;5038840;28;20460;-71
2024/02/13 12:14:32;;;;;;;1.43;1.03;;;10.80;60.30;;;;;;5023371;28;20435;-71
2024/02/13 12:17:04;;;;;;;3.23;1.37;;;10.70;59.30;;;;;;5031287;28;20432;-72
2024/02/13 12:19:30;;;;;;;3.23;1.27;;;10.70;59.20;;;;;;5029220;28;20471;-73
2024/02/13 12:21:55;;;;;;;3.20;1.33;;;10.80;59.70;;;;;;5026717;28;21069;-71
2024/02/13 12:24:21;;;;;;;6.70;2.33;;;11.00;59.70;;;;;;5025443;28;20665;-71
2024/02/13 12:26:47;;;;;;;1.73;1.20;;;11.20;58.50;;;;;;5036030;28;20556;-71
2024/02/13 12:29:19;;;;;;;4.83;1.60;;;11.20;58.20;;;;;;5035524;28;20936;-71
2024/02/13 12:31:47;;;;;;;5.90;1.80;;;11.20;58.70;;;;;;5023734;28;20209;-72
2024/02/13 12:34:14;;;;;;;3.73;1.23;;;11.20;58.70;;;;;;5022051;28;20447;-72
2024/02/13 12:36:39;;;;;;;7.53;1.80;;;11.10;58.80;;;;;;5031554;28;20503;-72
2024/02/13 12:39:20;;;;;;;2.17;1.10;;;11.10;59.20;;;;;;5032301;28;20602;-71
2024/02/13 12:41:47;;;;;;;5.00;1.60;;;11.20;58.80;;;;;;5024515;28;20404;-72
2024/02/13 12:44:17;;;;;;;2.40;1.30;;;11.20;59.50;;;;;;5031546;28;20786;-73
2024/02/13 12:46:42;;;;;;;4.17;1.10;;;11.30;58.70;;;;;;5031999;28;20931;-72
2024/02/13 12:49:10;;;;;;;5.67;1.40;;;11.10;57.40;;;;;;5030049;28;20436;-73
2024/02/13 12:51:36;;;;;;;2.50;1.20;;;11.30;57.60;;;;;;5030513;28;20296;-73
2024/02/13 12:54:04;;;;;;;1.40;0.90;;;11.50;56.80;;;;;;5026310;28;20420;-71
2024/02/13 12:56:31;;;;;;;4.50;1.10;;;11.80;56.20;;;;;;5025747;28;20412;-74
2024/02/13 12:58:57;;;;;;;2.03;1.30;;;12.10;55.70;;;;;;5029876;28;20552;-71